Ocean Navigator — WSC2552 — position and weather

sailwx.info

Track history (hours):
 
Tides and Currents Weather Stations Pressure Air Temp Water Temp Dewpoint Dewpoint Depression Visibility Wind Speed Wind Dir Waves Ship Positions

Ocean Navigator

Owner: OCEAN NAVIGATOR INC, SEATTLE, WA. More information available from US FCC via Universal Licensing System and Coast Guard Vessel Documentation Center.

Last reported at 2015-Jan-28 18:33 UTC. Time now 2015-Jan-30 00:24 UTC.
Position N 47°39' W 122°22'.

Type: Tow > 200 m length. MMSI: 366358000.

Date/timePositionNaut miles runAvg speedWind from/ knotsBaromVisibWave heightAir tempDewpointWater temp
2015-Jan-28 18:33N 47°39' W 122°22'2 1.8
2015-Jan-28 17:33N 47°40' W 122°24'0 4.2
2015-Jan-28 17:31N 47°40' W 122°24'5 5.2
2015-Jan-28 16:33N 47°36' W 122°22'0 1.3
2015-Jan-28 16:31N 47°36' W 122°22'2 1.6
2015-Jan-28 15:33N 47°37' W 122°24'1 6.8
2015-Jan-28 15:26N 47°37' W 122°25'5 5.2
2015-Jan-28 14:33N 47°41' W 122°28'0 4.6
2015-Jan-28 14:31N 47°41' W 122°28'5 4.8
2015-Jan-28 13:33N 47°46' W 122°27'0 4.9
2015-Jan-28 13:31N 47°46' W 122°27'5 4.8
2015-Jan-28 12:33N 47°50' W 122°29'0 4.9
2015-Jan-28 12:30N 47°51' W 122°29'5 5.0
2015-Jan-28 11:33N 47°55' W 122°30'2 4.6
2015-Jan-28 11:10N 47°56' W 122°32'3 4.5
2015-Jan-28 10:33N 47°58' W 122°36'5 5.1
2015-Jan-28 09:33N 48°03' W 122°39'0 0.0
2015-Jan-28 09:33N 48°03' W 122°39'10 6.8
2015-Jan-28 08:03N 48°10' W 122°49'5 8.9
2015-Jan-28 07:31N 48°11' W 122°56'3 8.8
2015-Jan-28 07:13N 48°11' W 123°00'5 8.5
2015-Jan-28 06:38N 48°12' W 123°08'1 9.5
2015-Jan-28 06:32N 48°12' W 123°09'10 9.7
2015-Jan-28 05:31N 48°13' W 123°24'1 9.5
2015-Jan-28 05:28N 48°12' W 123°24'9 9.7
2015-Jan-28 04:33N 48°12' W 123°38'1110.8
2015-Jan-28 03:30N 48°12' W 123°55'1010.2
2015-Jan-28 02:33N 48°16' W 124°08'9 9.4
2015-Jan-28 01:33N 48°20' W 124°21'9 8.8
2015-Jan-28 00:33N 48°24' W 124°33'8 7.9
2015-Jan-27 23:33N 48°26' W 124°44'7 6.7
2015-Jan-27 22:32N 48°23' W 124°53'36 8.6
2015-Jan-27 18:17N 47°46' W 124°49'43 9.0
2015-Jan-27 13:32N 47°05' W 124°33'9 8.8
2015-Jan-27 12:33N 46°57' W 124°30'9 9.1
2015-Jan-27 11:33N 46°48' W 124°28'9 9.0
2015-Jan-27 10:33N 46°39' W 124°24'9 8.6
2015-Jan-27 09:33N 46°30' W 124°22'9 8.7
2015-Jan-27 08:33N 46°22' W 124°21'9 8.8
2015-Jan-27 07:33N 46°14' W 124°16'6 5.7
2015-Jan-27 06:33N 46°14' W 124°08'7 6.6
2015-Jan-27 05:33N 46°13' W 123°58'7 7.4
2015-Jan-27 04:33N 46°13' W 123°47'8 7.9
2015-Jan-27 03:33N 46°15' W 123°37'7 7.2
2015-Jan-27 02:33N 46°15' W 123°26'7 7.2
2015-Jan-27 01:33N 46°09' W 123°21'10 9.8
2015-Jan-27 00:33N 46°11' W 123°08'1110.5
2015-Jan-26 23:33N 46°05' W 122°55'1110.8
2015-Jan-26 22:33N 45°56' W 122°48'1110.5
2015-Jan-26 21:33N 45°45' W 122°46'8 8.1
2015-Jan-26 20:33N 45°37' W 122°48'0 0.2
2015-Jan-26 19:33N 45°37' W 122°47'0 0.0
2015-Jan-26 18:33N 45°37' W 122°47'0 0.0
2015-Jan-26 17:33N 45°37' W 122°47'0 0.0
2015-Jan-26 16:33N 45°37' W 122°47'0 0.0
2015-Jan-26 15:33N 45°37' W 122°47'0 0.0
2015-Jan-26 14:33N 45°37' W 122°47'0 0.0
2015-Jan-26 13:33N 45°37' W 122°47'0 0.0
2015-Jan-26 12:33N 45°37' W 122°47'0 0.0
2015-Jan-26 11:33N 45°37' W 122°47'0 0.0
2015-Jan-26 10:33N 45°37' W 122°47'0 0.0
2015-Jan-26 09:33N 45°37' W 122°47'0 0.0
2015-Jan-26 08:33N 45°37' W 122°47'0 0.0
2015-Jan-26 07:33N 45°37' W 122°47'0 0.0
2015-Jan-26 06:33N 45°37' W 122°47'0 0.0
2015-Jan-26 05:33N 45°37' W 122°47'0 0.0
2015-Jan-26 04:33N 45°37' W 122°47'0 0.0
2015-Jan-26 03:33N 45°37' W 122°47'4 4.4
2015-Jan-26 02:33N 45°34' W 122°44'0 0.2
2015-Jan-26 01:33N 45°34' W 122°44'0 0.0
2015-Jan-26 00:33N 45°34' W 122°44'0 0.0
2015-Jan-25 23:33N 45°34' W 122°44'0 0.0
2015-Jan-25 22:33N 45°34' W 122°44'0 0.0
2015-Jan-25 21:33N 45°34' W 122°44'  
2015-Jan-22 01:27N 45°34' W 122°44'0 0.1
2015-Jan-22 00:33N 45°34' W 122°44'0 0.0
2015-Jan-21 23:33N 45°34' W 122°44'3 3.6
2015-Jan-21 22:50N 45°36' W 122°46'0 6.6
2015-Jan-21 22:46N 45°36' W 122°47'1 6.0
2015-Jan-21 22:33N 45°37' W 122°47'0 0.3
2015-Jan-21 21:33N 45°37' W 122°47'5 4.8
2015-Jan-21 20:31N 45°42' W 122°46'5 5.1
2015-Jan-21 19:34N 45°47' W 122°47'5 4.9
2015-Jan-21 18:33N 45°52' W 122°47'5 4.7
2015-Jan-21 17:33N 45°57' W 122°48'5 4.9
2015-Jan-21 16:33N 46°01' W 122°52'4 4.4
2015-Jan-21 15:33N 46°05' W 122°54'5 4.7
2015-Jan-21 14:33N 46°08' W 122°60'5 5.3
2015-Jan-21 13:33N 46°11' W 123°06'5 5.3
2015-Jan-21 12:33N 46°10' W 123°14'4 4.4
2015-Jan-21 11:33N 46°09' W 123°20'5 4.5
2015-Jan-21 10:34N 46°11' W 123°26'4 4.0
2015-Jan-21 09:33N 46°15' W 123°26'5 5.0
2015-Jan-21 08:33N 46°15' W 123°33'7 6.8
2015-Jan-21 07:33N 46°14' W 123°43'7 7.1
2015-Jan-21 06:33N 46°11' W 123°53'7 6.7
2015-Jan-21 05:33N 46°15' W 124°01'4 4.3
2015-Jan-21 04:33N 46°14' W 124°07'4 3.7
2015-Jan-21 03:33N 46°13' W 124°12'4 3.6
2015-Jan-21 02:33N 46°14' W 124°17'5 4.6
2015-Jan-21 01:33N 46°18' W 124°19'1 5.3
2015-Jan-21 01:27N 46°19' W 124°20'2 2.3
2015-Jan-21 00:33N 46°21' W 124°21'1 2.2
2015-Jan-21 00:07N 46°22' W 124°21'1 2.2
2015-Jan-20 23:33N 46°23' W 124°21'1 1.8
2015-Jan-20 22:47N 46°24' W 124°21'1 2.2
2015-Jan-20 22:33N 46°25' W 124°21'1 2.1
2015-Jan-20 22:07N 46°25' W 124°21'1 2.1
2015-Jan-20 21:33N 46°27' W 124°22'3 3.4
2015-Jan-20 20:36N 46°30' W 124°23'0 3.3
2015-Jan-20 20:33N 46°30' W 124°23'1 3.3
2015-Jan-20 20:16N 46°31' W 124°23'2 3.2
2015-Jan-20 19:33N 46°33' W 124°25'0 5.6
2015-Jan-20 19:31N 46°33' W 124°25'4 4.2
2015-Jan-20 18:33N 46°37' W 124°24'5 4.8
2015-Jan-20 17:33N 46°41' W 124°27'5 4.6
2015-Jan-20 16:33N 46°46' W 124°29'6 6.0
2015-Jan-20 15:33N 46°52' W 124°29'1 6.8
2015-Jan-20 15:25N 46°53' W 124°29'6 6.6
2015-Jan-20 14:33N 46°58' W 124°31'7 6.6
2015-Jan-20 13:33N 47°05' W 124°34'5 6.0
2015-Jan-20 12:39N 47°10' W 124°36'1 6.1
2015-Jan-20 12:29N 47°11' W 124°36'33 6.3
2015-Jan-20 07:18N 47°42' W 124°48'11 6.0
2015-Jan-20 05:24N 47°53' W 124°53'5 5.4
2015-Jan-20 04:24N 47°58' W 124°54'10 5.2
2015-Jan-20 02:33N 48°08' W 124°57'6 6.0
2015-Jan-20 01:33N 48°14' W 124°58'6 5.6
2015-Jan-20 00:28N 48°20' W 124°56'5 5.9
2015-Jan-19 23:33N 48°25' W 124°53'5 4.9
2015-Jan-19 22:33N 48°27' W 124°46'6 5.9
2015-Jan-19 21:33N 48°25' W 124°38'7 7.1
2015-Jan-19 20:33N 48°22' W 124°29'7 7.0
2015-Jan-19 19:34N 48°19' W 124°19'7 6.6
2015-Jan-19 18:33N 48°16' W 124°10'7 7.1
2015-Jan-19 17:34N 48°14' W 124°00'0 5.6
2015-Jan-19 17:33N 48°14' W 124°00'4 7.6
2015-Jan-19 16:58N 48°13' W 123°54'3 7.8
2015-Jan-19 16:33N 48°12' W 123°49'5 8.0
2015-Jan-19 15:56N 48°12' W 123°41'3 7.5
2015-Jan-19 15:34N 48°12' W 123°37'2 7.7
2015-Jan-19 15:20N 48°12' W 123°35'6 7.2
2015-Jan-19 14:32N 48°15' W 123°27'0 6.5
2015-Jan-19 14:28N 48°15' W 123°26'6 7.1
2015-Jan-19 13:33N 48°19' W 123°19'7 7.0
2015-Jan-19 12:33N 48°24' W 123°12'8 7.9
2015-Jan-19 11:33N 48°32' W 123°13'6 6.0
2015-Jan-19 10:34N 48°38' W 123°15'5 5.4
2015-Jan-19 09:43N 48°42' W 123°15'1 4.9
2015-Jan-19 09:32N 48°43' W 123°14'5 4.7
2015-Jan-19 08:33N 48°42' W 123°07'2 1.7
2015-Jan-19 07:36N 48°43' W 123°08'0 7.5
2015-Jan-19 07:33N 48°43' W 123°09'2 1.8
2015-Jan-19 06:33N 48°42' W 123°07'1 3.4
2015-Jan-19 06:20N 48°42' W 123°06'2 2.4
2015-Jan-19 05:33N 48°44' W 123°08'2 2.3
2015-Jan-19 04:35N 48°42' W 123°10'0 7.4
2015-Jan-19 04:33N 48°42' W 123°10'1 4.1
2015-Jan-19 04:25N 48°42' W 123°09'3 3.1
2015-Jan-19 03:33N 48°44' W 123°06'2 1.6
2015-Jan-19 02:33N 48°43' W 123°08'1 2.5
2015-Jan-19 02:20N 48°43' W 123°09'2 3.1
2015-Jan-19 01:33N 48°40' W 123°08'0 4.6
2015-Jan-19 01:30N 48°40' W 123°08'3 3.5
2015-Jan-19 00:34N 48°43' W 123°05'1 4.2
2015-Jan-19 00:24N 48°44' W 123°05'4 4.0
2015-Jan-18 23:26N 48°42' W 123°11'0 0.8
2015-Jan-18 23:24N 48°42' W 123°11'3 4.0
2015-Jan-18 22:34N 48°40' W 123°07'1 2.9
2015-Jan-18 22:09N 48°41' W 123°06'2 3.5
2015-Jan-18 21:34N 48°43' W 123°05'1 3.6
2015-Jan-18 21:19N 48°44' W 123°04'2 2.6
2015-Jan-18 20:33N 48°42' W 123°06'2 2.3
2015-Jan-18 19:33N 48°41' W 123°09'  
Track history (hours):
 
Tides and Currents Weather Stations Pressure Air Temp Water Temp Dewpoint Dewpoint Depression Visibility Wind Speed Wind Dir Waves Ship Positions

Ocean Navigator

Owner: OCEAN NAVIGATOR INC, SEATTLE, WA. More information available from US FCC via Universal Licensing System and Coast Guard Vessel Documentation Center.

Last reported at 2015-Jan-28 18:33 UTC. Time now 2015-Jan-30 00:24 UTC.
Position N 47°39' W 122°22'.

Type: Tow > 200 m length. MMSI: 366358000.

Date/timePositionNaut miles runAvg speedWind from/ knotsBaromVisibWave heightAir tempDewpointWater temp
2015-Jan-28 18:33N 47°39' W 122°22'2 1.8
2015-Jan-28 17:33N 47°40' W 122°24'0 4.2
2015-Jan-28 17:31N 47°40' W 122°24'5 5.2
2015-Jan-28 16:33N 47°36' W 122°22'0 1.3
2015-Jan-28 16:31N 47°36' W 122°22'2 1.6
2015-Jan-28 15:33N 47°37' W 122°24'1 6.8
2015-Jan-28 15:26N 47°37' W 122°25'5 5.2
2015-Jan-28 14:33N 47°41' W 122°28'0 4.6
2015-Jan-28 14:31N 47°41' W 122°28'5 4.8
2015-Jan-28 13:33N 47°46' W 122°27'0 4.9
2015-Jan-28 13:31N 47°46' W 122°27'5 4.8
2015-Jan-28 12:33N 47°50' W 122°29'0 4.9
2015-Jan-28 12:30N 47°51' W 122°29'5 5.0
2015-Jan-28 11:33N 47°55' W 122°30'2 4.6
2015-Jan-28 11:10N 47°56' W 122°32'3 4.5
2015-Jan-28 10:33N 47°58' W 122°36'5 5.1
2015-Jan-28 09:33N 48°03' W 122°39'0 0.0
2015-Jan-28 09:33N 48°03' W 122°39'10 6.8
2015-Jan-28 08:03N 48°10' W 122°49'5 8.9
2015-Jan-28 07:31N 48°11' W 122°56'3 8.8
2015-Jan-28 07:13N 48°11' W 123°00'5 8.5
2015-Jan-28 06:38N 48°12' W 123°08'1 9.5
2015-Jan-28 06:32N 48°12' W 123°09'10 9.7
2015-Jan-28 05:31N 48°13' W 123°24'1 9.5
2015-Jan-28 05:28N 48°12' W 123°24'9 9.7
2015-Jan-28 04:33N 48°12' W 123°38'1110.8
2015-Jan-28 03:30N 48°12' W 123°55'1010.2
2015-Jan-28 02:33N 48°16' W 124°08'9 9.4
2015-Jan-28 01:33N 48°20' W 124°21'9 8.8
2015-Jan-28 00:33N 48°24' W 124°33'8 7.9
2015-Jan-27 23:33N 48°26' W 124°44'7 6.7
2015-Jan-27 22:32N 48°23' W 124°53'36 8.6
2015-Jan-27 18:17N 47°46' W 124°49'43 9.0
2015-Jan-27 13:32N 47°05' W 124°33'9 8.8
2015-Jan-27 12:33N 46°57' W 124°30'9 9.1
2015-Jan-27 11:33N 46°48' W 124°28'9 9.0
2015-Jan-27 10:33N 46°39' W 124°24'9 8.6
2015-Jan-27 09:33N 46°30' W 124°22'9 8.7
2015-Jan-27 08:33N 46°22' W 124°21'9 8.8
2015-Jan-27 07:33N 46°14' W 124°16'6 5.7
2015-Jan-27 06:33N 46°14' W 124°08'7 6.6
2015-Jan-27 05:33N 46°13' W 123°58'7 7.4
2015-Jan-27 04:33N 46°13' W 123°47'8 7.9
2015-Jan-27 03:33N 46°15' W 123°37'7 7.2
2015-Jan-27 02:33N 46°15' W 123°26'7 7.2
2015-Jan-27 01:33N 46°09' W 123°21'10 9.8
2015-Jan-27 00:33N 46°11' W 123°08'1110.5
2015-Jan-26 23:33N 46°05' W 122°55'1110.8
2015-Jan-26 22:33N 45°56' W 122°48'1110.5
2015-Jan-26 21:33N 45°45' W 122°46'8 8.1
2015-Jan-26 20:33N 45°37' W 122°48'0 0.2
2015-Jan-26 19:33N 45°37' W 122°47'0 0.0
2015-Jan-26 18:33N 45°37' W 122°47'0 0.0
2015-Jan-26 17:33N 45°37' W 122°47'0 0.0
2015-Jan-26 16:33N 45°37' W 122°47'0 0.0
2015-Jan-26 15:33N 45°37' W 122°47'0 0.0
2015-Jan-26 14:33N 45°37' W 122°47'0 0.0
2015-Jan-26 13:33N 45°37' W 122°47'0 0.0
2015-Jan-26 12:33N 45°37' W 122°47'0 0.0
2015-Jan-26 11:33N 45°37' W 122°47'0 0.0
2015-Jan-26 10:33N 45°37' W 122°47'0 0.0
2015-Jan-26 09:33N 45°37' W 122°47'0 0.0
2015-Jan-26 08:33N 45°37' W 122°47'0 0.0
2015-Jan-26 07:33N 45°37' W 122°47'0 0.0
2015-Jan-26 06:33N 45°37' W 122°47'0 0.0
2015-Jan-26 05:33N 45°37' W 122°47'0 0.0
2015-Jan-26 04:33N 45°37' W 122°47'0 0.0
2015-Jan-26 03:33N 45°37' W 122°47'4 4.4
2015-Jan-26 02:33N 45°34' W 122°44'0 0.2
2015-Jan-26 01:33N 45°34' W 122°44'0 0.0
2015-Jan-26 00:33N 45°34' W 122°44'0 0.0
2015-Jan-25 23:33N 45°34' W 122°44'0 0.0
2015-Jan-25 22:33N 45°34' W 122°44'0 0.0
2015-Jan-25 21:33N 45°34' W 122°44'  
2015-Jan-22 01:27N 45°34' W 122°44'0 0.1
2015-Jan-22 00:33N 45°34' W 122°44'0 0.0
2015-Jan-21 23:33N 45°34' W 122°44'3 3.6
2015-Jan-21 22:50N 45°36' W 122°46'0 6.6
2015-Jan-21 22:46N 45°36' W 122°47'1 6.0
2015-Jan-21 22:33N 45°37' W 122°47'0 0.3
2015-Jan-21 21:33N 45°37' W 122°47'5 4.8
2015-Jan-21 20:31N 45°42' W 122°46'5 5.1
2015-Jan-21 19:34N 45°47' W 122°47'5 4.9
2015-Jan-21 18:33N 45°52' W 122°47'5 4.7
2015-Jan-21 17:33N 45°57' W 122°48'5 4.9
2015-Jan-21 16:33N 46°01' W 122°52'4 4.4
2015-Jan-21 15:33N 46°05' W 122°54'5 4.7
2015-Jan-21 14:33N 46°08' W 122°60'5 5.3
2015-Jan-21 13:33N 46°11' W 123°06'5 5.3
2015-Jan-21 12:33N 46°10' W 123°14'4 4.4
2015-Jan-21 11:33N 46°09' W 123°20'5 4.5
2015-Jan-21 10:34N 46°11' W 123°26'4 4.0
2015-Jan-21 09:33N 46°15' W 123°26'5 5.0
2015-Jan-21 08:33N 46°15' W 123°33'7 6.8
2015-Jan-21 07:33N 46°14' W 123°43'7 7.1
2015-Jan-21 06:33N 46°11' W 123°53'7 6.7
2015-Jan-21 05:33N 46°15' W 124°01'4 4.3
2015-Jan-21 04:33N 46°14' W 124°07'4 3.7
2015-Jan-21 03:33N 46°13' W 124°12'4 3.6
2015-Jan-21 02:33N 46°14' W 124°17'5 4.6
2015-Jan-21 01:33N 46°18' W 124°19'1 5.3
2015-Jan-21 01:27N 46°19' W 124°20'2 2.3
2015-Jan-21 00:33N 46°21' W 124°21'1 2.2
2015-Jan-21 00:07N 46°22' W 124°21'1 2.2
2015-Jan-20 23:33N 46°23' W 124°21'1 1.8
2015-Jan-20 22:47N 46°24' W 124°21'1 2.2
2015-Jan-20 22:33N 46°25' W 124°21'1 2.1
2015-Jan-20 22:07N 46°25' W 124°21'1 2.1
2015-Jan-20 21:33N 46°27' W 124°22'3 3.4
2015-Jan-20 20:36N 46°30' W 124°23'0 3.3
2015-Jan-20 20:33N 46°30' W 124°23'1 3.3
2015-Jan-20 20:16N 46°31' W 124°23'2 3.2
2015-Jan-20 19:33N 46°33' W 124°25'0 5.6
2015-Jan-20 19:31N 46°33' W 124°25'4 4.2
2015-Jan-20 18:33N 46°37' W 124°24'5 4.8
2015-Jan-20 17:33N 46°41' W 124°27'5 4.6
2015-Jan-20 16:33N 46°46' W 124°29'6 6.0
2015-Jan-20 15:33N 46°52' W 124°29'1 6.8
2015-Jan-20 15:25N 46°53' W 124°29'6 6.6
2015-Jan-20 14:33N 46°58' W 124°31'7 6.6
2015-Jan-20 13:33N 47°05' W 124°34'5 6.0
2015-Jan-20 12:39N 47°10' W 124°36'1 6.1
2015-Jan-20 12:29N 47°11' W 124°36'33 6.3
2015-Jan-20 07:18N 47°42' W 124°48'11 6.0
2015-Jan-20 05:24N 47°53' W 124°53'5 5.4
2015-Jan-20 04:24N 47°58' W 124°54'10 5.2
2015-Jan-20 02:33N 48°08' W 124°57'6 6.0
2015-Jan-20 01:33N 48°14' W 124°58'6 5.6
2015-Jan-20 00:28N 48°20' W 124°56'5 5.9
2015-Jan-19 23:33N 48°25' W 124°53'5 4.9
2015-Jan-19 22:33N 48°27' W 124°46'6 5.9
2015-Jan-19 21:33N 48°25' W 124°38'7 7.1
2015-Jan-19 20:33N 48°22' W 124°29'7 7.0
2015-Jan-19 19:34N 48°19' W 124°19'7 6.6
2015-Jan-19 18:33N 48°16' W 124°10'7 7.1
2015-Jan-19 17:34N 48°14' W 124°00'0 5.6
2015-Jan-19 17:33N 48°14' W 124°00'4 7.6
2015-Jan-19 16:58N 48°13' W 123°54'3 7.8
2015-Jan-19 16:33N 48°12' W 123°49'5 8.0
2015-Jan-19 15:56N 48°12' W 123°41'3 7.5
2015-Jan-19 15:34N 48°12' W 123°37'2 7.7
2015-Jan-19 15:20N 48°12' W 123°35'6 7.2
2015-Jan-19 14:32N 48°15' W 123°27'0 6.5
2015-Jan-19 14:28N 48°15' W 123°26'6 7.1
2015-Jan-19 13:33N 48°19' W 123°19'7 7.0
2015-Jan-19 12:33N 48°24' W 123°12'8 7.9
2015-Jan-19 11:33N 48°32' W 123°13'6 6.0
2015-Jan-19 10:34N 48°38' W 123°15'5 5.4
2015-Jan-19 09:43N 48°42' W 123°15'1 4.9
2015-Jan-19 09:32N 48°43' W 123°14'5 4.7
2015-Jan-19 08:33N 48°42' W 123°07'2 1.7
2015-Jan-19 07:36N 48°43' W 123°08'0 7.5
2015-Jan-19 07:33N 48°43' W 123°09'2 1.8
2015-Jan-19 06:33N 48°42' W 123°07'1 3.4
2015-Jan-19 06:20N 48°42' W 123°06'2 2.4
2015-Jan-19 05:33N 48°44' W 123°08'2 2.3
2015-Jan-19 04:35N 48°42' W 123°10'0 7.4
2015-Jan-19 04:33N 48°42' W 123°10'1 4.1
2015-Jan-19 04:25N 48°42' W 123°09'3 3.1
2015-Jan-19 03:33N 48°44' W 123°06'2 1.6
2015-Jan-19 02:33N 48°43' W 123°08'1 2.5
2015-Jan-19 02:20N 48°43' W 123°09'2 3.1
2015-Jan-19 01:33N 48°40' W 123°08'0 4.6
2015-Jan-19 01:30N 48°40' W 123°08'3 3.5
2015-Jan-19 00:34N 48°43' W 123°05'1 4.2
2015-Jan-19 00:24N 48°44' W 123°05'4 4.0
2015-Jan-18 23:26N 48°42' W 123°11'0 0.8
2015-Jan-18 23:24N 48°42' W 123°11'3 4.0
2015-Jan-18 22:34N 48°40' W 123°07'1 2.9
2015-Jan-18 22:09N 48°41' W 123°06'2 3.5
2015-Jan-18 21:34N 48°43' W 123°05'1 3.6
2015-Jan-18 21:19N 48°44' W 123°04'2 2.6
2015-Jan-18 20:33N 48°42' W 123°06'2 2.3
2015-Jan-18 19:33N 48°41' W 123°09'  

Dump ship's entire track history